createdAt,value
2023-02-13T00:00:31.420Z,1.20
2023-02-13T00:02:58.099Z,1.20
2023-02-13T00:05:24.873Z,1.20
2023-02-13T00:07:51.624Z,1.20
2023-02-13T00:10:18.416Z,1.20
2023-02-13T00:12:45.184Z,1.30
2023-02-13T00:15:11.904Z,1.30
2023-02-13T00:17:38.787Z,1.30
2023-02-13T00:20:06.230Z,1.40
2023-02-13T00:22:37.089Z,1.40
2023-02-13T00:25:05.774Z,1.40
2023-02-13T00:27:32.887Z,1.60
2023-02-13T00:29:59.905Z,1.60
2023-02-13T00:32:26.698Z,1.60
2023-02-13T00:34:53.517Z,1.60
2023-02-13T00:37:20.243Z,1.60
2023-02-13T00:39:46.952Z,1.70
2023-02-13T00:42:13.642Z,1.80
2023-02-13T00:44:40.460Z,1.70
2023-02-13T00:47:07.171Z,1.70
2023-02-13T00:49:33.918Z,1.60
2023-02-13T00:52:00.635Z,1.50
2023-02-13T00:54:27.441Z,1.40
2023-02-13T00:56:54.252Z,1.50
2023-02-13T00:59:20.995Z,1.40
2023-02-13T01:01:47.758Z,1.40
2023-02-13T01:04:14.645Z,1.30
2023-02-13T01:06:41.571Z,1.50
2023-02-13T01:09:08.342Z,1.40
2023-02-13T01:11:35.264Z,1.30
2023-02-13T01:14:02.006Z,1.40
2023-02-13T01:16:28.679Z,1.40
2023-02-13T01:18:55.432Z,1.30
2023-02-13T01:21:24.079Z,1.30
2023-02-13T01:23:51.598Z,1.20
2023-02-13T01:26:22.343Z,1.10
2023-02-13T01:28:51.585Z,1.00
2023-02-13T01:31:18.486Z,1.00
2023-02-13T01:33:45.274Z,0.90
2023-02-13T01:36:14.232Z,0.80
2023-02-13T01:38:41.968Z,0.80
2023-02-13T01:41:09.458Z,0.70
2023-02-13T01:43:49.706Z,0.60
2023-02-13T01:46:31.885Z,0.60
2023-02-13T01:49:11.399Z,0.50
2023-02-13T01:51:39.524Z,0.50
2023-02-13T01:54:10.540Z,0.40
2023-02-13T01:57:01.161Z,0.30
2023-02-13T01:59:51.283Z,0.20
2023-02-13T02:02:19.535Z,0.20
2023-02-13T02:04:48.233Z,0.10
2023-02-13T02:07:22.950Z,0.10
2023-02-13T02:09:51.341Z,0.00
2023-02-13T02:12:37.784Z,0.00
2023-02-13T02:15:06.725Z,0.00
2023-02-13T02:17:33.628Z,0.00
2023-02-13T02:20:09.156Z,0.00
2023-02-13T02:22:57.468Z,0.00
2023-02-13T02:25:49.768Z,0.10
2023-02-13T02:28:30.055Z,0.10
2023-02-13T02:31:18.499Z,0.30
2023-02-13T02:34:07.248Z,0.20
2023-02-13T02:37:05.221Z,0.20
2023-02-13T02:39:49.874Z,0.20
2023-02-13T02:42:22.451Z,0.20
2023-02-13T02:45:01.344Z,0.20
2023-02-13T02:48:27.163Z,0.20
2023-02-13T02:51:19.224Z,0.20
2023-02-13T02:54:02.382Z,0.20
2023-02-13T02:56:39.531Z,0.20
2023-02-13T02:59:35.474Z,0.20
2023-02-13T03:02:21.597Z,0.20
2023-02-13T03:04:54.624Z,0.20
2023-02-13T03:07:21.513Z,0.20
2023-02-13T03:10:16.842Z,0.20
2023-02-13T03:13:14.485Z,0.20
2023-02-13T03:16:03.535Z,0.40
2023-02-13T03:18:51.636Z,0.40
2023-02-13T03:21:53.995Z,0.50
2023-02-13T03:24:30.578Z,0.60
2023-02-13T03:27:37.631Z,0.70
2023-02-13T03:30:22.173Z,0.70
2023-02-13T03:33:09.269Z,0.80
2023-02-13T03:35:58.256Z,0.80
2023-02-13T03:38:47.353Z,0.80
2023-02-13T03:41:20.890Z,0.80
2023-02-13T03:43:47.574Z,0.90
2023-02-13T03:46:16.437Z,1.00
2023-02-13T03:49:03.093Z,1.00
2023-02-13T03:51:49.644Z,1.00
2023-02-13T03:54:49.930Z,0.90
2023-02-13T03:57:39.010Z,0.80
2023-02-13T04:00:10.976Z,0.80
2023-02-13T04:02:44.578Z,0.70
2023-02-13T04:05:24.757Z,0.70
2023-02-13T04:07:51.616Z,0.70
2023-02-13T04:10:19.348Z,0.70
2023-02-13T04:13:01.324Z,0.80
2023-02-13T04:15:39.484Z,0.80
2023-02-13T04:18:20.687Z,0.70
2023-02-13T04:20:47.644Z,0.70
2023-02-13T04:23:15.190Z,0.60
2023-02-13T04:25:45.527Z,0.60
2023-02-13T04:28:12.306Z,0.50
2023-02-13T04:30:39.139Z,0.50
2023-02-13T04:33:06.071Z,0.40
2023-02-13T04:35:33.046Z,0.40
2023-02-13T04:37:59.862Z,0.30
2023-02-13T04:40:26.555Z,0.30
2023-02-13T04:42:53.291Z,0.30
2023-02-13T04:45:20.352Z,0.20
2023-02-13T04:47:52.221Z,0.20
2023-02-13T04:50:19.652Z,0.20
2023-02-13T04:52:46.765Z,0.20
2023-02-13T04:55:14.335Z,0.10
2023-02-13T04:57:41.098Z,0.10
2023-02-13T05:00:09.040Z,0.10
2023-02-13T05:02:36.622Z,0.10
2023-02-13T05:05:04.606Z,0.10
2023-02-13T05:07:31.405Z,0.10
2023-02-13T05:09:58.253Z,0.10
2023-02-13T05:12:25.047Z,0.00
2023-02-13T05:14:51.950Z,0.10
2023-02-13T05:17:18.717Z,0.10
2023-02-13T05:19:45.407Z,0.10
2023-02-13T05:22:30.666Z,0.10
2023-02-13T05:24:57.391Z,0.10
2023-02-13T05:27:24.147Z,0.10
2023-02-13T05:29:51.048Z,0.10
2023-02-13T05:32:17.950Z,0.00
2023-02-13T05:34:44.745Z,0.00
2023-02-13T05:37:11.547Z,0.00
2023-02-13T05:39:38.259Z,0.00
2023-02-13T05:42:05.300Z,-0.10
2023-02-13T05:44:32.254Z,-0.10
2023-02-13T05:46:58.979Z,-0.10
2023-02-13T05:49:25.727Z,-0.10
2023-02-13T05:51:52.488Z,-0.10
2023-02-13T05:54:19.486Z,-0.10
2023-02-13T05:56:46.887Z,-0.10
2023-02-13T05:59:14.001Z,-0.10
2023-02-13T06:01:41.172Z,-0.10
2023-02-13T06:04:08.030Z,-0.10
2023-02-13T06:06:34.924Z,-0.10
2023-02-13T06:09:01.629Z,-0.10
2023-02-13T06:11:28.357Z,-0.20
2023-02-13T06:13:55.086Z,-0.10
2023-02-13T06:16:22.588Z,-0.10
2023-02-13T06:18:49.342Z,-0.10
2023-02-13T06:21:16.123Z,-0.10
2023-02-13T06:23:43.075Z,-0.20
2023-02-13T06:26:10.059Z,-0.20
2023-02-13T06:28:36.869Z,-0.20
2023-02-13T06:31:04.081Z,-0.20
2023-02-13T06:33:30.944Z,-0.20
2023-02-13T06:35:57.790Z,-0.20
2023-02-13T06:38:24.616Z,-0.20
2023-02-13T06:40:51.934Z,-0.20
2023-02-13T06:43:19.288Z,-0.20
2023-02-13T06:45:47.270Z,-0.20
2023-02-13T06:48:14.601Z,-0.30
2023-02-13T06:50:41.497Z,-0.20
2023-02-13T06:53:08.307Z,-0.30
2023-02-13T06:55:36.012Z,-0.20
2023-02-13T06:58:02.911Z,-0.20
2023-02-13T07:00:29.856Z,-0.20
2023-02-13T07:03:02.716Z,-0.30
2023-02-13T07:05:29.787Z,-0.20
2023-02-13T07:07:56.772Z,-0.20
2023-02-13T07:10:23.627Z,-0.20
2023-02-13T07:13:03.663Z,-0.20
2023-02-13T07:15:33.278Z,-0.30
2023-02-13T07:18:00.587Z,-0.30
2023-02-13T07:20:28.140Z,-0.20
2023-02-13T07:23:01.753Z,-0.20
2023-02-13T07:25:28.793Z,-0.20
2023-02-13T07:28:00.628Z,-0.10
2023-02-13T07:30:27.420Z,-0.10
2023-02-13T07:32:54.180Z,-0.10
2023-02-13T07:35:20.922Z,-0.10
2023-02-13T07:37:47.640Z,-0.10
2023-02-13T07:40:14.444Z,-0.10
2023-02-13T07:42:41.247Z,-0.20
2023-02-13T07:45:08.417Z,-0.10
2023-02-13T07:47:35.242Z,-0.10
2023-02-13T07:50:05.946Z,-0.10
2023-02-13T07:52:33.506Z,0.00
2023-02-13T07:55:00.209Z,0.00
2023-02-13T07:57:26.976Z,0.00
2023-02-13T07:59:53.723Z,0.00
2023-02-13T08:02:20.517Z,0.00
2023-02-13T08:04:47.279Z,0.10
2023-02-13T08:07:15.160Z,0.10
2023-02-13T08:10:02.657Z,0.10
2023-02-13T08:12:29.534Z,0.10
2023-02-13T08:14:56.262Z,0.20
2023-02-13T08:17:23.024Z,0.20
2023-02-13T08:19:49.970Z,0.10
2023-02-13T08:22:16.701Z,0.10
2023-02-13T08:24:43.429Z,0.20
2023-02-13T08:27:14.580Z,0.10
2023-02-13T08:29:41.447Z,0.20
2023-02-13T08:32:08.531Z,0.10
2023-02-13T08:34:35.241Z,0.20
2023-02-13T08:37:02.779Z,0.20
2023-02-13T08:39:29.615Z,0.30
2023-02-13T08:41:56.502Z,0.30
2023-02-13T08:44:23.276Z,0.40
2023-02-13T08:46:50.079Z,0.30
2023-02-13T08:49:17.070Z,0.30
2023-02-13T08:51:43.870Z,0.20
2023-02-13T08:54:10.700Z,0.10
2023-02-13T08:56:37.445Z,0.20
2023-02-13T08:59:05.489Z,0.30
2023-02-13T09:01:32.413Z,0.40
2023-02-13T09:03:59.232Z,0.50
2023-02-13T09:06:26.952Z,0.50
2023-02-13T09:08:54.545Z,0.50
2023-02-13T09:11:23.352Z,0.60
2023-02-13T09:13:53.067Z,0.60
2023-02-13T09:16:20.081Z,0.60
2023-02-13T09:18:48.545Z,0.50
2023-02-13T09:21:16.225Z,0.60
2023-02-13T09:23:43.042Z,0.70
2023-02-13T09:26:12.623Z,0.70
2023-02-13T09:28:40.396Z,0.60
2023-02-13T09:31:08.900Z,0.70
2023-02-13T09:33:36.236Z,0.70
2023-02-13T09:36:14.937Z,0.70
2023-02-13T09:38:45.357Z,0.80
2023-02-13T09:41:21.196Z,0.80
2023-02-13T09:44:05.207Z,0.80
2023-02-13T09:46:37.771Z,0.90
2023-02-13T09:49:17.044Z,0.80
2023-02-13T09:51:45.617Z,0.70
2023-02-13T09:54:19.107Z,0.70
2023-02-13T09:57:08.068Z,0.70
2023-02-13T09:59:51.387Z,0.70
2023-02-13T10:02:39.709Z,0.60
2023-02-13T10:05:21.712Z,0.50
2023-02-13T10:08:03.438Z,0.50
2023-02-13T10:11:02.771Z,0.50
2023-02-13T10:13:52.155Z,0.60
2023-02-13T10:16:37.042Z,0.70
2023-02-13T10:19:16.513Z,0.70
2023-02-13T10:21:58.531Z,0.70
2023-02-13T10:24:37.082Z,0.80
2023-02-13T10:27:24.428Z,0.90
2023-02-13T10:30:14.805Z,0.90
2023-02-13T10:33:11.208Z,0.90
2023-02-13T10:35:39.068Z,1.10
2023-02-13T10:38:16.122Z,0.90
2023-02-13T10:40:54.068Z,0.90
2023-02-13T10:43:24.061Z,0.90
2023-02-13T10:46:16.020Z,1.00
2023-02-13T10:49:20.015Z,1.00
2023-02-13T10:52:01.697Z,0.90
2023-02-13T10:55:01.557Z,0.80
2023-02-13T10:57:40.140Z,0.90
2023-02-13T11:00:24.908Z,1.00
2023-02-13T11:02:51.827Z,1.10
2023-02-13T11:05:23.768Z,1.20
2023-02-13T11:07:51.005Z,1.10
2023-02-13T11:10:23.670Z,1.10
2023-02-13T11:12:51.569Z,1.10
2023-02-13T11:15:30.231Z,1.20
2023-02-13T11:18:19.438Z,1.10
2023-02-13T11:20:48.898Z,1.00
2023-02-13T11:23:21.774Z,1.00
2023-02-13T11:26:17.490Z,1.00
2023-02-13T11:28:57.472Z,1.10
2023-02-13T11:31:30.668Z,1.10
2023-02-13T11:33:59.666Z,1.10
2023-02-13T11:36:33.966Z,1.30
2023-02-13T11:39:04.830Z,1.30
2023-02-13T11:41:43.699Z,1.30
2023-02-13T11:44:32.399Z,1.40
2023-02-13T11:47:01.254Z,1.60
2023-02-13T11:49:45.187Z,1.40
2023-02-13T11:52:32.570Z,1.40
2023-02-13T11:55:25.730Z,1.40
2023-02-13T11:58:24.421Z,1.40
2023-02-13T12:01:11.571Z,1.60
2023-02-13T12:03:38.939Z,1.60
2023-02-13T12:06:15.661Z,1.70
2023-02-13T12:08:46.464Z,1.70
2023-02-13T12:11:22.399Z,1.80
2023-02-13T12:13:50.373Z,1.70
2023-02-13T12:16:40.445Z,1.70
2023-02-13T12:19:13.475Z,1.80
2023-02-13T12:21:58.250Z,1.80
2023-02-13T12:25:02.692Z,1.70
2023-02-13T12:27:52.344Z,1.60
2023-02-13T12:30:46.389Z,1.70
2023-02-13T12:33:45.719Z,1.60
2023-02-13T12:36:24.956Z,1.70
2023-02-13T12:39:51.144Z,1.50
2023-02-13T12:42:36.020Z,1.70
2023-02-13T12:45:02.737Z,1.80
2023-02-13T12:47:50.738Z,1.90
2023-02-13T12:50:36.019Z,1.90
2023-02-13T12:53:08.739Z,2.00
2023-02-13T12:55:53.831Z,1.80
2023-02-13T12:58:48.247Z,1.90
2023-02-13T13:01:33.851Z,1.70
2023-02-13T13:04:32.899Z,1.70
2023-02-13T13:07:17.219Z,1.70
2023-02-13T13:09:55.711Z,1.70
2023-02-13T13:12:37.891Z,1.60
2023-02-13T13:15:15.142Z,1.60
2023-02-13T13:17:47.559Z,1.50
2023-02-13T13:20:31.020Z,1.60
2023-02-13T13:23:05.392Z,1.50
2023-02-13T13:25:54.818Z,1.40
2023-02-13T13:28:25.195Z,1.40
2023-02-13T13:30:53.561Z,1.40
2023-02-13T13:33:25.713Z,1.40
2023-02-13T13:36:01.134Z,1.60
2023-02-13T13:38:51.852Z,1.50
2023-02-13T13:41:32.989Z,1.60
2023-02-13T13:44:31.816Z,1.70
2023-02-13T13:47:19.112Z,1.80
2023-02-13T13:49:57.306Z,1.80
2023-02-13T13:52:30.625Z,1.80
2023-02-13T13:55:00.534Z,1.80
2023-02-13T13:57:33.470Z,1.80
2023-02-13T14:00:26.571Z,1.90
2023-02-13T14:02:59.104Z,1.60
2023-02-13T14:05:29.886Z,1.60
2023-02-13T14:08:24.739Z,1.70
2023-02-13T14:10:57.515Z,1.60
2023-02-13T14:13:36.233Z,1.70
2023-02-13T14:16:04.466Z,1.50
2023-02-13T14:18:32.103Z,1.50
2023-02-13T14:21:01.795Z,1.60
2023-02-13T14:23:37.580Z,1.60
2023-02-13T14:26:16.277Z,1.60
2023-02-13T14:28:54.759Z,1.70
2023-02-13T14:31:30.374Z,1.70
2023-02-13T14:34:04.318Z,1.70
2023-02-13T14:36:40.434Z,1.70
2023-02-13T14:39:16.361Z,1.70
2023-02-13T14:41:59.172Z,1.50
2023-02-13T14:44:38.952Z,1.40
2023-02-13T14:47:28.903Z,1.50
2023-02-13T14:49:57.635Z,1.50
2023-02-13T14:52:29.074Z,1.40
2023-02-13T14:55:07.900Z,1.40
2023-02-13T14:57:40.294Z,1.40
2023-02-13T15:00:27.653Z,1.40
2023-02-13T15:03:19.958Z,1.40
2023-02-13T15:05:53.075Z,1.40
2023-02-13T15:08:24.040Z,1.50
2023-02-13T15:10:53.791Z,1.40
2023-02-13T15:13:33.162Z,1.40
2023-02-13T15:16:11.595Z,1.40
2023-02-13T15:18:52.812Z,1.30
2023-02-13T15:21:23.190Z,1.40
2023-02-13T15:23:52.328Z,1.40
2023-02-13T15:26:26.328Z,1.40
2023-02-13T15:29:27.840Z,1.30
2023-02-13T15:31:59.138Z,1.30
2023-02-13T15:34:29.665Z,1.30
2023-02-13T15:36:56.993Z,1.20
2023-02-13T15:39:26.698Z,1.20
2023-02-13T15:42:03.976Z,1.10
2023-02-13T15:44:37.115Z,1.10
2023-02-13T15:47:15.962Z,1.10
2023-02-13T15:49:46.556Z,1.10
2023-02-13T15:52:39.022Z,1.20
2023-02-13T15:55:06.185Z,1.00
2023-02-13T15:57:36.165Z,1.00
2023-02-13T16:00:04.019Z,1.10
2023-02-13T16:02:46.270Z,1.10
2023-02-13T16:05:15.212Z,1.10
2023-02-13T16:07:59.242Z,1.00
2023-02-13T16:10:26.167Z,1.00
2023-02-13T16:12:54.189Z,1.00
2023-02-13T16:15:22.609Z,1.00
2023-02-13T16:17:49.677Z,1.00
2023-02-13T16:20:23.182Z,1.00
2023-02-13T16:22:57.172Z,0.90
2023-02-13T16:25:40.577Z,1.00
2023-02-13T16:28:10.236Z,1.00
2023-02-13T16:30:43.540Z,1.00
2023-02-13T16:33:20.738Z,0.90
2023-02-13T16:35:56.654Z,0.90
2023-02-13T16:38:41.077Z,0.90
2023-02-13T16:41:19.798Z,0.90
2023-02-13T16:43:47.426Z,0.90
2023-02-13T16:46:39.756Z,0.90
2023-02-13T16:49:09.577Z,0.80
2023-02-13T16:51:43.093Z,0.80
2023-02-13T16:54:20.587Z,0.80
2023-02-13T16:56:56.343Z,0.80
2023-02-13T16:59:28.037Z,0.80
2023-02-13T17:02:21.209Z,0.80
2023-02-13T17:05:09.884Z,0.70
2023-02-13T17:07:38.311Z,0.70
2023-02-13T17:10:36.177Z,0.70
2023-02-13T17:13:15.130Z,0.70
2023-02-13T17:15:44.479Z,0.70
2023-02-13T17:18:11.270Z,0.60
2023-02-13T17:20:41.570Z,0.60
2023-02-13T17:23:17.467Z,0.60
2023-02-13T17:25:51.904Z,0.60
2023-02-13T17:28:24.199Z,0.60
2023-02-13T17:30:53.608Z,0.60
2023-02-13T17:33:23.693Z,0.60
2023-02-13T17:35:51.294Z,0.50
2023-02-13T17:38:18.227Z,0.60
2023-02-13T17:40:45.634Z,0.50
2023-02-13T17:43:14.292Z,0.50
2023-02-13T17:45:41.616Z,0.50
2023-02-13T17:48:08.620Z,0.50
2023-02-13T17:50:35.936Z,0.40
2023-02-13T17:53:05.538Z,0.40
2023-02-13T17:55:33.645Z,0.40
2023-02-13T17:58:00.833Z,0.40
2023-02-13T18:00:30.913Z,0.40
2023-02-13T18:02:59.412Z,0.30
2023-02-13T18:05:27.106Z,0.40
2023-02-13T18:07:54.046Z,0.30
2023-02-13T18:10:27.756Z,0.20
2023-02-13T18:12:57.031Z,0.20
2023-02-13T18:15:24.545Z,0.20
2023-02-13T18:17:51.356Z,0.30
2023-02-13T18:20:20.645Z,0.20
2023-02-13T18:22:50.476Z,0.20
2023-02-13T18:25:18.678Z,0.30
2023-02-13T18:27:45.919Z,0.30
2023-02-13T18:30:16.025Z,0.30
2023-02-13T18:32:42.778Z,0.30
2023-02-13T18:35:09.831Z,0.30
2023-02-13T18:37:38.985Z,0.30
2023-02-13T18:40:09.991Z,0.30
2023-02-13T18:42:36.878Z,0.20
2023-02-13T18:45:04.405Z,0.20
2023-02-13T18:47:31.303Z,0.30
2023-02-13T18:49:58.032Z,0.30
2023-02-13T18:52:24.869Z,0.30
2023-02-13T18:54:51.779Z,0.30
2023-02-13T18:57:18.545Z,0.30
2023-02-13T18:59:45.269Z,0.30
2023-02-13T19:02:12.054Z,0.30
2023-02-13T19:04:39.196Z,0.30
2023-02-13T19:07:05.880Z,0.30
2023-02-13T19:09:32.699Z,0.20
2023-02-13T19:11:59.579Z,0.20
2023-02-13T19:14:26.920Z,0.30
2023-02-13T19:16:53.690Z,0.30
2023-02-13T19:19:20.428Z,0.20
2023-02-13T19:21:47.181Z,0.10
2023-02-13T19:24:15.481Z,0.10
2023-02-13T19:26:42.844Z,0.20
2023-02-13T19:29:09.636Z,0.20
2023-02-13T19:31:36.622Z,0.20
2023-02-13T19:34:05.726Z,0.20
2023-02-13T19:36:32.647Z,0.10
2023-02-13T19:39:05.015Z,0.10
2023-02-13T19:41:33.012Z,0.10
2023-02-13T19:44:00.952Z,0.10
2023-02-13T19:46:31.930Z,0.10
2023-02-13T19:48:58.960Z,0.10
2023-02-13T19:51:30.970Z,0.10
2023-02-13T19:54:06.773Z,0.00
2023-02-13T19:56:36.095Z,0.00
2023-02-13T19:59:04.038Z,0.00
2023-02-13T20:01:31.352Z,0.10
2023-02-13T20:03:58.364Z,0.10
2023-02-13T20:06:32.849Z,0.10
2023-02-13T20:09:03.745Z,0.10
2023-02-13T20:11:30.637Z,0.10
2023-02-13T20:14:00.781Z,0.10
2023-02-13T20:16:32.745Z,0.00
2023-02-13T20:19:03.108Z,0.00
2023-02-13T20:21:29.875Z,0.10
2023-02-13T20:23:56.633Z,0.00
2023-02-13T20:26:24.239Z,0.10
2023-02-13T20:28:51.065Z,0.10
2023-02-13T20:31:22.429Z,0.10
2023-02-13T20:33:51.058Z,0.10
2023-02-13T20:36:26.114Z,0.00
2023-02-13T20:38:55.854Z,0.00
2023-02-13T20:41:25.390Z,0.00
2023-02-13T20:43:52.602Z,0.00
2023-02-13T20:46:19.774Z,0.00
2023-02-13T20:48:48.242Z,0.00
2023-02-13T20:51:17.507Z,-0.10
2023-02-13T20:53:46.107Z,-0.10
2023-02-13T20:56:21.405Z,-0.10
2023-02-13T20:58:50.215Z,-0.10
2023-02-13T21:01:30.160Z,-0.20
2023-02-13T21:03:57.687Z,-0.20
2023-02-13T21:06:27.960Z,-0.10
2023-02-13T21:08:54.963Z,-0.10
2023-02-13T21:11:22.947Z,-0.10
2023-02-13T21:13:49.777Z,-0.10
2023-02-13T21:16:20.868Z,-0.10
2023-02-13T21:18:53.949Z,-0.10
2023-02-13T21:21:22.534Z,-0.10
2023-02-13T21:23:53.596Z,-0.20
2023-02-13T21:26:20.605Z,-0.20
2023-02-13T21:28:49.511Z,-0.30
2023-02-13T21:31:29.322Z,-0.20
2023-02-13T21:34:07.912Z,-0.30
2023-02-13T21:36:36.425Z,-0.30
2023-02-13T21:39:04.529Z,-0.30
2023-02-13T21:41:31.488Z,-0.30
2023-02-13T21:43:58.296Z,-0.30
2023-02-13T21:46:27.811Z,-0.30
2023-02-13T21:48:56.673Z,-0.30
2023-02-13T21:51:24.672Z,-0.40
2023-02-13T21:53:52.162Z,-0.40
2023-02-13T21:56:24.468Z,-0.40
2023-02-13T21:58:51.640Z,-0.40
2023-02-13T22:01:26.398Z,-0.40
2023-02-13T22:03:57.937Z,-0.40
2023-02-13T22:06:27.433Z,-0.30
2023-02-13T22:09:02.728Z,-0.30
2023-02-13T22:11:29.925Z,-0.40
2023-02-13T22:14:00.996Z,-0.40
2023-02-13T22:16:29.275Z,-0.40
2023-02-13T22:18:56.283Z,-0.40
2023-02-13T22:21:26.226Z,-0.30
2023-02-13T22:23:53.459Z,-0.30
2023-02-13T22:26:24.181Z,-0.30
2023-02-13T22:28:51.572Z,-0.30
2023-02-13T22:31:19.459Z,-0.30
2023-02-13T22:33:52.285Z,-0.30
2023-02-13T22:36:25.319Z,-0.30
2023-02-13T22:38:52.520Z,-0.30
2023-02-13T22:41:24.774Z,-0.30
2023-02-13T22:43:52.155Z,-0.30
2023-02-13T22:46:25.009Z,-0.30
2023-02-13T22:48:52.596Z,-0.30
2023-02-13T22:51:22.940Z,-0.30
2023-02-13T22:53:52.459Z,-0.30
2023-02-13T22:56:19.201Z,-0.30
2023-02-13T22:58:45.900Z,-0.30
2023-02-13T23:01:14.687Z,-0.30
2023-02-13T23:03:41.956Z,-0.30
2023-02-13T23:06:10.514Z,-0.30
2023-02-13T23:08:38.584Z,-0.40
2023-02-13T23:11:25.835Z,-0.40
2023-02-13T23:13:52.774Z,-0.40
2023-02-13T23:16:19.818Z,-0.40
2023-02-13T23:18:51.767Z,-0.40
2023-02-13T23:21:19.551Z,-0.40
2023-02-13T23:23:46.348Z,-0.50
2023-02-13T23:26:13.122Z,-0.50
2023-02-13T23:28:39.872Z,-0.40
2023-02-13T23:31:06.855Z,-0.40
2023-02-13T23:33:33.688Z,-0.40
2023-02-13T23:36:00.372Z,-0.40
2023-02-13T23:38:27.119Z,-0.40
2023-02-13T23:40:53.912Z,-0.40
2023-02-13T23:43:20.657Z,-0.40
2023-02-13T23:45:47.483Z,-0.40
2023-02-13T23:48:14.279Z,-0.40
2023-02-13T23:50:41.470Z,-0.40
2023-02-13T23:53:08.232Z,-0.40
2023-02-13T23:55:34.987Z,-0.40
2023-02-13T23:58:01.771Z,-0.40
